< < Back
Terminal Aerodrome Forecast


Current Version              Previous Versions:   1  2  3  4  5  6  7  8  9  

Terminal Aerodrome Forecast

718
FTUS42 KTAE 201100
TAFTLH
TAF
KTLH 201131Z 2012/2112 28007KT P6SM FEW030
     FM201900 27009KT P6SM VCTS SCT040CB
     FM210000 30003KT P6SM SCT040=

Latest METAR

494
SAUS80 KWBC 211400
MTRTLH
METAR KTLH 211353Z 32005KT 10SM FEW250 29/23 A3015 RMK AO2 SLP208
T02940228


USA.gov is the U.S. government's official web portal to all federal, state and local government web resources and services.